Time;durP1;ratioP1;P1;durP2;ratioP2;P2;SDS_P1;SDS_P2;PMS_P1;PMS_P2;Temp;Humidity;BMP_temperature;BMP_pressure;BME280_temperature;BME280_humidity;BME280_pressure;Samples;Min_cycle;Max_cycle;Signal;HPM_P1;HPM_P2
2023/07/10 03:54:19;;;;;;;15.23;10.23;;;22.70;99.90;;;;;;5010746;28;20044;-75
2023/07/10 03:57:23;;;;;;;11.98;9.25;;;22.70;99.90;;;;;;5010906;28;20396;-75
2023/07/10 04:00:27;;;;;;;21.08;10.63;;;22.60;99.90;;;;;;5010845;28;20049;-75
2023/07/10 04:03:33;;;;;;;11.98;9.35;;;22.60;99.90;;;;;;5010520;28;20060;-74
2023/07/10 04:06:37;;;;;;;15.20;9.40;;;22.70;99.90;;;;;;5010897;28;20053;-74
2023/07/10 04:09:41;;;;;;;12.95;9.07;;;22.70;99.90;;;;;;5010879;28;20048;-74
2023/07/10 04:12:45;;;;;;;15.38;9.45;;;22.70;99.90;;;;;;5010356;28;20065;-75
2023/07/10 04:16:00;;;;;;;18.13;9.68;;;22.70;99.90;;;;;;5010928;28;20487;-75
2023/07/10 04:19:04;;;;;;;16.73;9.40;;;22.70;99.90;;;;;;5010510;28;20061;-75
2023/07/10 04:22:08;;;;;;;16.20;8.80;;;22.80;99.90;;;;;;5010314;28;20044;-74
2023/07/10 04:25:14;;;;;;;17.40;8.82;;;22.90;99.90;;;;;;5010549;28;20056;-75
2023/07/10 04:28:18;;;;;;;11.10;7.97;;;23.00;99.90;;;;;;5010531;28;20053;-75
2023/07/10 04:31:23;;;;;;;14.75;8.77;;;23.00;99.90;;;;;;5008274;28;20114;-75
2023/07/10 04:34:28;;;;;;;15.50;8.85;;;23.10;99.90;;;;;;5011420;28;20523;-75
2023/07/10 04:37:32;;;;;;;12.52;8.73;;;23.50;99.90;;;;;;5011007;28;20052;-75
2023/07/10 04:40:36;;;;;;;12.07;8.52;;;24.70;99.90;;;;;;4998581;28;20068;-75
2023/07/10 04:43:40;;;;;;;15.27;8.68;;;25.80;99.90;;;;;;5010729;28;20068;-75
2023/07/10 04:46:44;;;;;;;12.73;8.20;;;26.80;99.90;;;;;;5010854;28;20044;-75
2023/07/10 04:49:48;;;;;;;16.92;8.15;;;27.80;99.90;;;;;;5029562;28;20048;-75
2023/07/10 04:52:52;;;;;;;16.02;8.15;;;28.70;99.90;;;;;;5020450;28;20052;-75
2023/07/10 04:55:57;;;;;;;10.48;7.40;;;29.30;99.90;;;;;;5010204;28;20037;-75
2023/07/10 04:59:00;;;;;;;11.70;7.50;;;29.80;99.90;;;;;;5010745;28;20053;-75
2023/07/10 05:02:04;;;;;;;12.93;7.90;;;30.10;99.90;;;;;;5033950;28;20388;-75
2023/07/10 05:05:09;;;;;;;17.40;7.25;;;30.70;99.90;;;;;;5013568;28;20048;-75
2023/07/10 05:08:13;;;;;;;11.20;7.20;;;31.20;99.90;;;;;;5033791;28;20048;-75
2023/07/10 05:11:16;;;;;;;13.57;6.97;;;31.50;99.90;;;;;;5032901;28;20041;-75
2023/07/10 05:14:21;;;;;;;11.02;7.68;;;31.70;99.90;;;;;;5033587;28;20057;-75
2023/07/10 05:17:24;;;;;;;13.80;7.35;;;31.40;99.90;;;;;;5033542;28;20515;-75
2023/07/10 05:20:28;;;;;;;13.07;7.70;;;31.90;99.90;;;;;;5033268;28;20048;-74
2023/07/10 05:23:33;;;;;;;12.30;6.97;;;32.30;99.90;;;;;;5031560;28;20235;-75
2023/07/10 05:26:37;;;;;;;11.13;6.47;;;32.60;99.90;;;;;;5023513;28;20296;-75
2023/07/10 05:29:40;;;;;;;15.45;7.30;;;32.90;99.90;;;;;;5032418;28;20048;-75
2023/07/10 05:32:44;;;;;;;14.88;7.30;;;33.30;99.90;;;;;;5013336;28;20053;-75
2023/07/10 05:35:54;;;;;;;11.38;6.40;;;33.70;99.90;;;;;;5013272;28;20047;-76
2023/07/10 05:38:58;;;;;;;11.75;6.13;;;34.00;99.90;;;;;;5013420;28;20041;-75
2023/07/10 05:42:02;;;;;;;10.85;5.97;;;34.20;99.90;;;;;;5015240;28;20041;-75
2023/07/10 05:45:07;;;;;;;18.83;6.90;;;34.30;99.90;;;;;;5034758;28;20052;-75
2023/07/10 05:48:10;;;;;;;16.42;6.22;;;34.50;99.90;;;;;;5023118;28;20388;-75
2023/07/10 05:51:14;;;;;;;10.98;6.38;;;34.70;99.90;;;;;;5018274;28;20045;-75
2023/07/10 05:54:20;;;;;;;11.80;6.90;;;34.90;99.90;;;;;;5013324;28;20049;-75
2023/07/10 05:57:25;;;;;;;12.00;6.40;;;33.60;99.90;;;;;;5013367;28;20049;-75
2023/07/10 06:00:29;;;;;;;9.98;6.28;;;33.30;99.90;;;;;;5013431;28;20044;-75
2023/07/10 06:03:33;;;;;;;14.43;6.55;;;33.70;99.90;;;;;;5013200;28;20045;-75
2023/07/10 06:06:39;;;;;;;10.30;6.28;;;34.20;99.90;;;;;;5013335;28;20234;-75
2023/07/10 06:09:43;;;;;;;13.48;6.43;;;34.60;99.90;;;;;;5013227;28;20512;-75
2023/07/10 06:12:47;;;;;;;11.38;6.45;;;34.80;99.90;;;;;;5015805;28;20032;-75
2023/07/10 06:15:56;;;;;;;13.00;6.75;;;34.60;99.90;;;;;;5025778;28;20053;-75
2023/07/10 06:19:00;;;;;;;10.15;6.75;;;32.10;99.90;;;;;;5029290;28;20044;-74
2023/07/10 06:22:09;;;;;;;14.52;6.43;;;31.70;99.90;;;;;;5028970;28;20040;-75
2023/07/10 06:25:13;;;;;;;10.30;6.13;;;31.40;99.90;;;;;;5035944;28;20049;-75
2023/07/10 06:28:17;;;;;;;14.15;6.55;;;31.60;99.90;;;;;;5025251;28;20049;-75
2023/07/10 06:31:21;;;;;;;8.30;5.60;;;32.60;99.90;;;;;;5030738;28;20036;-75
2023/07/10 06:34:25;;;;;;;11.63;6.55;;;33.10;99.90;;;;;;5023742;28;20056;-76
2023/07/10 06:37:29;;;;;;;11.60;6.43;;;33.10;99.90;;;;;;5021943;28;20032;-75
2023/07/10 06:40:33;;;;;;;14.15;6.07;;;33.40;99.90;;;;;;5026113;28;20052;-74
2023/07/10 06:43:37;;;;;;;11.32;6.35;;;34.00;99.90;;;;;;5022706;28;20036;-75
2023/07/10 06:46:41;;;;;;;9.27;6.20;;;34.80;99.90;;;;;;5018474;28;20052;-75
2023/07/10 06:49:45;;;;;;;11.63;5.97;;;35.40;99.90;;;;;;5017546;28;20057;-76
2023/07/10 06:52:49;;;;;;;6.80;5.30;;;36.00;99.90;;;;;;5027194;28;20400;-74
2023/07/10 06:55:55;;;;;;;11.25;6.13;;;36.60;99.90;;;;;;5024637;28;20044;-75
2023/07/10 06:58:59;;;;;;;10.68;5.88;;;37.30;99.30;;;;;;5021611;28;20060;-75
2023/07/10 07:02:03;;;;;;;11.20;5.75;;;37.70;98.50;;;;;;5017572;28;20048;-75
2023/07/10 07:05:08;;;;;;;12.10;6.30;;;37.90;98.00;;;;;;5029134;28;20041;-74
2023/07/10 07:08:13;;;;;;;9.23;5.25;;;37.00;98.60;;;;;;5023978;28;20052;-76
2023/07/10 07:11:18;;;;;;;13.63;5.97;;;35.40;99.60;;;;;;5027986;28;20040;-74
2023/07/10 07:14:22;;;;;;;10.32;5.30;;;34.80;99.90;;;;;;5020027;28;20044;-74
2023/07/10 07:17:26;;;;;;;13.90;6.30;;;35.10;99.90;;;;;;5023571;28;20040;-75
2023/07/10 07:20:32;;;;;;;13.68;5.70;;;36.20;99.90;;;;;;5026405;28;20040;-75
2023/07/10 07:23:35;;;;;;;15.32;6.10;;;35.40;99.40;;;;;;5028373;28;20049;-75
2023/07/10 07:26:40;;;;;;;12.90;5.90;;;35.80;99.90;;;;;;5030335;28;20487;-76
2023/07/10 07:29:44;;;;;;;10.38;5.45;;;37.20;98.80;;;;;;5024585;28;20410;-75
2023/07/10 07:32:49;;;;;;;9.32;5.10;;;37.80;98.00;;;;;;5019310;28;20878;-76
2023/07/10 07:35:53;;;;;;;11.50;5.40;;;38.60;97.40;;;;;;5021692;28;20123;-75
2023/07/10 07:38:57;;;;;;;7.40;4.68;;;38.30;96.70;;;;;;5028104;28;20364;-75
2023/07/10 07:42:01;;;;;;;13.05;5.65;;;38.60;96.60;;;;;;5027750;28;20056;-74
2023/07/10 07:45:06;;;;;;;6.97;4.75;;;38.10;96.70;;;;;;5019972;28;20052;-75
2023/07/10 07:48:10;;;;;;;7.97;5.22;;;38.50;96.20;;;;;;5022985;28;20040;-74
2023/07/10 07:51:16;;;;;;;12.05;5.22;;;39.60;96.00;;;;;;5027155;28;20052;-73
2023/07/10 07:54:20;;;;;;;7.85;5.40;;;39.60;95.60;;;;;;5023462;28;20052;-74
2023/07/10 07:57:25;;;;;;;7.97;5.22;;;39.70;95.00;;;;;;5025983;28;20040;-75
2023/07/10 08:00:30;;;;;;;8.15;4.95;;;40.20;94.70;;;;;;5020419;28;20049;-75
2023/07/10 08:03:34;;;;;;;9.80;5.53;;;41.10;94.40;;;;;;5020226;28;20373;-74
2023/07/10 08:06:38;;;;;;;10.55;5.05;;;39.50;94.70;;;;;;5028406;28;20036;-75
2023/07/10 08:09:42;;;;;;;10.35;6.15;;;39.80;94.90;;;;;;5026041;28;20372;-74
2023/07/10 08:12:46;;;;;;;8.95;5.13;;;38.00;95.80;;;;;;5026355;28;20048;-75
2023/07/10 08:15:50;;;;;;;8.43;5.28;;;38.50;96.00;;;;;;5020747;28;20044;-74
2023/07/10 08:18:54;;;;;;;7.72;4.90;;;40.30;95.10;;;;;;5022501;28;20045;-74
2023/07/10 08:21:58;;;;;;;10.93;5.57;;;41.90;94.10;;;;;;5025867;28;20052;-75
2023/07/10 08:25:03;;;;;;;11.75;5.05;;;43.10;92.70;;;;;;5025093;28;20044;-75
2023/07/10 08:28:07;;;;;;;7.15;4.90;;;43.80;92.20;;;;;;5022492;28;20053;-75
2023/07/10 08:31:11;;;;;;;9.70;4.57;;;43.60;91.30;;;;;;5019976;28;20121;-75
2023/07/10 08:34:15;;;;;;;8.10;4.97;;;44.30;90.70;;;;;;5026506;28;20503;-75
2023/07/10 08:37:20;;;;;;;10.27;5.03;;;44.60;89.40;;;;;;5030741;28;20036;-75
2023/07/10 08:40:33;;;;;;;8.15;4.20;;;44.40;90.00;;;;;;5028641;28;20037;-76
2023/07/10 08:43:40;;;;;;;6.78;4.70;;;44.30;89.70;;;;;;5023394;28;20044;-76
2023/07/10 08:46:44;;;;;;;10.65;5.18;;;43.20;88.00;;;;;;5026535;28;20045;-74
2023/07/10 08:49:54;;;;;;;7.88;4.47;;;42.30;89.50;;;;;;5022414;28;20052;-76
2023/07/10 08:53:06;;;;;;;8.82;4.50;;;40.60;90.70;;;;;;5027079;28;20044;-75
2023/07/10 08:56:09;;;;;;;12.48;5.22;;;42.40;90.20;;;;;;5034096;28;20044;-75
2023/07/10 08:59:53;;;;;;;12.75;4.80;;;43.20;89.70;;;;;;5049419;28;20068;-75
2023/07/10 09:03:02;;;;;;;6.50;4.15;;;43.70;88.00;;;;;;5028650;28;20392;-75
2023/07/10 09:06:15;;;;;;;8.27;4.70;;;43.70;87.40;;;;;;5031896;28;20032;-73
2023/07/10 09:09:43;;;;;;;8.80;4.30;;;43.20;87.20;;;;;;5029006;28;20048;-75
2023/07/10 09:12:51;;;;;;;12.90;4.60;;;44.90;87.10;;;;;;5028604;28;20048;-76
2023/07/10 09:15:57;;;;;;;5.47;4.00;;;44.80;86.10;;;;;;5034852;28;20043;-75
2023/07/10 09:19:12;;;;;;;8.32;4.43;;;43.80;85.20;;;;;;5027596;28;20536;-74
2023/07/10 09:22:16;;;;;;;8.18;4.28;;;45.80;85.40;;;;;;5021281;28;20369;-77
2023/07/10 09:25:21;;;;;;;11.82;4.53;;;45.70;84.00;;;;;;5034541;28;20048;-73
2023/07/10 09:28:26;;;;;;;4.78;3.88;;;45.90;83.40;;;;;;5033330;28;20051;-74
2023/07/10 09:31:49;;;;;;;10.05;4.80;;;46.90;81.20;;;;;;5033241;28;20499;-76
2023/07/10 09:34:58;;;;;;;13.38;4.82;;;46.60;81.50;;;;;;5034164;28;20079;-78
2023/07/10 09:38:03;;;;;;;6.35;4.47;;;44.90;79.90;;;;;;5033934;28;20057;-75
2023/07/10 09:41:18;;;;;;;5.90;4.55;;;45.90;80.10;;;;;;5033903;28;20044;-77
2023/07/10 09:44:23;;;;;;;8.43;4.50;;;46.80;79.50;;;;;;5034243;28;20040;-75
2023/07/10 09:47:40;;;;;;;6.63;4.00;;;47.50;78.40;;;;;;5033811;28;20052;-76
2023/07/10 09:50:49;;;;;;;6.97;3.70;;;49.50;77.50;;;;;;5013620;28;20523;-75
2023/07/10 09:53:59;;;;;;;5.90;3.67;;;51.70;73.40;;;;;;5014634;28;20097;-76
2023/07/10 09:57:17;;;;;;;8.35;3.83;;;52.20;70.90;;;;;;5013980;28;20061;-77
2023/07/10 10:00:22;;;;;;;7.30;4.30;;;51.50;71.60;;;;;;5025498;28;20049;-76
2023/07/10 10:03:32;;;;;;;11.57;4.32;;;49.50;71.80;;;;;;5034187;28;20048;-75
2023/07/10 10:06:41;;;;;;;11.05;4.07;;;47.00;71.10;;;;;;5033204;28;20048;-74
2023/07/10 10:09:44;;;;;;;8.35;3.80;;;48.50;70.60;;;;;;5033227;28;20048;-75
2023/07/10 10:13:01;;;;;;;8.88;4.30;;;47.60;72.70;;;;;;5025592;28;20087;-76
2023/07/10 10:16:19;;;;;;;5.22;3.45;;;49.00;72.60;;;;;;5030281;28;20056;-73
2023/07/10 10:19:30;;;;;;;6.78;3.78;;;49.20;70.40;;;;;;5032098;28;20480;-73
2023/07/10 10:22:34;;;;;;;9.45;3.90;;;48.80;70.00;;;;;;5025929;28;20044;-73
2023/07/10 10:25:42;;;;;;;5.28;3.58;;;49.90;70.50;;;;;;5031978;28;20056;-73
2023/07/10 10:28:59;;;;;;;6.50;3.28;;;51.40;68.20;;;;;;5026402;28;20416;-74
2023/07/10 10:32:09;;;;;;;7.47;3.50;;;52.20;67.10;;;;;;5028889;28;20045;-73
2023/07/10 10:35:31;;;;;;;7.32;3.35;;;52.30;67.00;;;;;;5030998;28;20045;-73
2023/07/10 10:38:43;;;;;;;7.40;3.65;;;52.90;64.60;;;;;;5012420;28;20044;-73
2023/07/10 10:42:03;;;;;;;10.05;3.70;;;52.20;64.00;;;;;;5031695;28;20411;-74
2023/07/10 10:45:25;;;;;;;10.52;3.95;;;49.30;64.90;;;;;;5020088;28;20495;-76
2023/07/10 10:48:39;;;;;;;7.80;3.60;;;50.60;66.70;;;;;;5031814;28;20129;-74
